DAL45 RJCC-VVTS
Flight info
| Callsign | DAL45 |
|---|---|
| Flight time | N/A |
| Altitude | 40000 |
| Route | HWE Y12 TAPPI Z16 MIHOU Y45 HKC A582 BOMAP Y62 YURIX Y26 KAORU/N0484F430 Y26 IGURU G581 HCN N892 MIGUG/K0895F430 N892 MESOX Q15 CRA W15 VETOM VETOM5A |
| Aircraft | A359/H-SDE2E3GHIJ3J4J5LM1ORWXY/LB1D1 |
Departure
| Time | 2026-04-28 07:42 |
|---|---|
| Airport | New Chitose Airport (RJCC) |
Arrival
| Time | N/A |
|---|---|
| Airport | Tan Son Nhat International Airport (VVTS) |
| Time | Latitude | Longitude | Altitude | Speed | Heading |
|---|---|---|---|---|---|
| 2026-04-28 07:42 | 42.48862 | 141.48840 | 18026 ft | 341 kts | 221° |
| 2026-04-28 07:42 | 42.46899 | 141.47011 | 18741 ft | 343 kts | 221° |
| 2026-04-28 07:42 | 42.44950 | 141.45192 | 19435 ft | 346 kts | 220° |
| 2026-04-28 07:42 | 42.42979 | 141.43356 | 20123 ft | 348 kts | 220° |
| 2026-04-28 07:43 | 42.40972 | 141.41490 | 20788 ft | 351 kts | 220° |
| 2026-04-28 07:43 | 42.38979 | 141.39639 | 21435 ft | 353 kts | 220° |
| 2026-04-28 07:43 | 42.36941 | 141.37749 | 22073 ft | 356 kts | 220° |
| 2026-04-28 07:43 | 42.34919 | 141.35875 | 22689 ft | 358 kts | 219° |
| 2026-04-28 07:44 | 42.32851 | 141.33958 | 23306 ft | 361 kts | 219° |
| 2026-04-28 07:44 | 42.30802 | 141.32051 | 23894 ft | 363 kts | 219° |
| 2026-04-28 07:44 | 42.28707 | 141.30104 | 24468 ft | 366 kts | 218° |
| 2026-04-28 07:44 | 42.26622 | 141.28171 | 24980 ft | 370 kts | 218° |
| 2026-04-28 07:45 | 42.24483 | 141.26193 | 25482 ft | 373 kts | 218° |
| 2026-04-28 07:45 | 42.22355 | 141.24228 | 25958 ft | 377 kts | 218° |
| 2026-04-28 07:45 | 42.20172 | 141.22217 | 26408 ft | 381 kts | 218° |
| 2026-04-28 07:45 | 42.18002 | 141.20216 | 26860 ft | 384 kts | 218° |
| 2026-04-28 07:46 | 42.15781 | 141.18175 | 27309 ft | 387 kts | 218° |
| 2026-04-28 07:46 | 42.13576 | 141.16147 | 27734 ft | 390 kts | 218° |
| 2026-04-28 07:46 | 42.11354 | 141.14107 | 28146 ft | 392 kts | 218° |
| 2026-04-28 07:46 | 42.09080 | 141.12021 | 28535 ft | 396 kts | 218° |
| 2026-04-28 07:47 | 42.06821 | 141.09949 | 28918 ft | 399 kts | 218° |
| 2026-04-28 07:47 | 42.04514 | 141.07835 | 29298 ft | 401 kts | 218° |
| 2026-04-28 07:47 | 42.02222 | 141.05740 | 29651 ft | 404 kts | 218° |
| 2026-04-28 07:47 | 41.99879 | 141.03598 | 29993 ft | 407 kts | 218° |
| 2026-04-28 07:48 | 41.97554 | 141.01485 | 30377 ft | 408 kts | 218° |
| 2026-04-28 07:48 | 41.95194 | 140.99338 | 30803 ft | 408 kts | 219° |
| 2026-04-28 07:48 | 41.92867 | 140.97218 | 31162 ft | 409 kts | 219° |
| 2026-04-28 07:48 | 41.90495 | 140.95056 | 31499 ft | 411 kts | 219° |
| 2026-04-28 07:49 | 41.88148 | 140.92926 | 31825 ft | 413 kts | 219° |
| 2026-04-28 07:49 | 41.85754 | 140.90764 | 32142 ft | 414 kts | 219° |
| 2026-04-28 07:49 | 41.83387 | 140.88623 | 32445 ft | 416 kts | 220° |
| 2026-04-28 07:49 | 41.80977 | 140.86441 | 32743 ft | 417 kts | 220° |
| 2026-04-28 07:50 | 41.78604 | 140.84277 | 33098 ft | 416 kts | 221° |
| 2026-04-28 07:50 | 41.76273 | 140.81988 | 33540 ft | 412 kts | 223° |
| 2026-04-28 07:50 | 41.74057 | 140.79654 | 33988 ft | 409 kts | 224° |
| 2026-04-28 07:50 | 41.71821 | 140.77301 | 34413 ft | 406 kts | 224° |
| 2026-04-28 07:51 | 41.69627 | 140.74991 | 34766 ft | 405 kts | 224° |
| 2026-04-28 07:51 | 41.67435 | 140.72685 | 35071 ft | 405 kts | 224° |
| 2026-04-28 07:51 | 41.65210 | 140.70346 | 35376 ft | 405 kts | 224° |
| 2026-04-28 07:51 | 41.63019 | 140.68042 | 35672 ft | 405 kts | 224° |
| 2026-04-28 07:52 | 41.60796 | 140.65707 | 35956 ft | 405 kts | 224° |
| 2026-04-28 07:52 | 41.58605 | 140.63408 | 36222 ft | 405 kts | 224° |
| 2026-04-28 07:52 | 41.56381 | 140.61073 | 36478 ft | 405 kts | 224° |
| 2026-04-28 07:52 | 41.54186 | 140.58774 | 36705 ft | 406 kts | 224° |
| 2026-04-28 07:53 | 41.51954 | 140.56436 | 36927 ft | 407 kts | 224° |
| 2026-04-28 07:53 | 41.49751 | 140.54132 | 37152 ft | 407 kts | 224° |
| 2026-04-28 07:53 | 41.47513 | 140.51793 | 37369 ft | 407 kts | 224° |
| 2026-04-28 07:53 | 41.45304 | 140.49486 | 37575 ft | 408 kts | 224° |
| 2026-04-28 07:54 | 41.43059 | 140.47145 | 37777 ft | 408 kts | 224° |
| 2026-04-28 07:54 | 41.40845 | 140.44838 | 37980 ft | 409 kts | 224° |
| 2026-04-28 07:54 | 41.38596 | 140.42496 | 38174 ft | 409 kts | 224° |
| 2026-04-28 07:54 | 41.36376 | 140.40186 | 38326 ft | 410 kts | 224° |
| 2026-04-28 07:55 | 41.34114 | 140.37834 | 38467 ft | 412 kts | 224° |
| 2026-04-28 07:55 | 41.31879 | 140.35512 | 38601 ft | 413 kts | 224° |
| 2026-04-28 07:55 | 41.29604 | 140.33147 | 38745 ft | 414 kts | 223° |
| 2026-04-28 07:55 | 41.27358 | 140.30806 | 38883 ft | 416 kts | 223° |
| 2026-04-28 07:56 | 41.25069 | 140.28424 | 39015 ft | 417 kts | 223° |
| 2026-04-28 07:56 | 41.22802 | 140.26073 | 39153 ft | 418 kts | 223° |
| 2026-04-28 07:56 | 41.20495 | 140.23686 | 39296 ft | 419 kts | 223° |
| 2026-04-28 07:56 | 41.18213 | 140.21332 | 39428 ft | 420 kts | 223° |
| 2026-04-28 07:57 | 41.15891 | 140.18939 | 39561 ft | 421 kts | 223° |
| 2026-04-28 07:57 | 41.13600 | 140.16576 | 39686 ft | 422 kts | 223° |
| 2026-04-28 07:57 | 41.11305 | 140.14122 | 39797 ft | 422 kts | 224° |
| 2026-04-28 07:57 | 41.09067 | 140.11659 | 39908 ft | 423 kts | 225° |
| 2026-04-28 07:58 | 41.04552 | 140.06682 | 39928 ft | 424 kts | 225° |
| 2026-04-28 07:58 | 41.00025 | 140.01717 | 39931 ft | 424 kts | 225° |
| 2026-04-28 07:59 | 40.95487 | 139.96759 | 39932 ft | 425 kts | 225° |
| 2026-04-28 07:59 | 40.90941 | 139.91803 | 39932 ft | 425 kts | 225° |
| 2026-04-28 08:00 | 40.86384 | 139.86870 | 39932 ft | 425 kts | 225° |
| 2026-04-28 08:00 | 40.81820 | 139.81941 | 39933 ft | 425 kts | 225° |
| 2026-04-28 08:01 | 40.77264 | 139.77019 | 39932 ft | 425 kts | 225° |
| 2026-04-28 08:01 | 40.72704 | 139.72095 | 39936 ft | 425 kts | 225° |
| 2026-04-28 08:02 | 40.68143 | 139.67171 | 39973 ft | 425 kts | 225° |
| 2026-04-28 08:02 | 40.63589 | 139.62259 | 40002 ft | 425 kts | 225° |
| 2026-04-28 08:03 | 40.59029 | 139.57350 | 40015 ft | 425 kts | 225° |
| 2026-04-28 08:03 | 40.54466 | 139.52452 | 40020 ft | 424 kts | 225° |
| 2026-04-28 08:04 | 40.49908 | 139.47566 | 40022 ft | 424 kts | 225° |
| 2026-04-28 08:04 | 40.45350 | 139.42686 | 40022 ft | 424 kts | 225° |
| 2026-04-28 08:05 | 40.40789 | 139.37814 | 40022 ft | 425 kts | 225° |
| 2026-04-28 08:05 | 40.36223 | 139.32939 | 40024 ft | 425 kts | 225° |
| 2026-04-28 08:06 | 40.31662 | 139.28062 | 40023 ft | 425 kts | 225° |
| 2026-04-28 08:06 | 40.27092 | 139.23200 | 40022 ft | 425 kts | 225° |
| 2026-04-28 08:07 | 40.22552 | 139.18385 | 40023 ft | 424 kts | 225° |
| 2026-04-28 08:07 | 40.17984 | 139.13547 | 40023 ft | 424 kts | 225° |
| 2026-04-28 08:08 | 40.13412 | 139.08717 | 40023 ft | 424 kts | 225° |
| 2026-04-28 08:08 | 40.08843 | 139.03899 | 40022 ft | 424 kts | 225° |
| 2026-04-28 08:09 | 40.04268 | 138.99083 | 40022 ft | 424 kts | 225° |
| 2026-04-28 08:09 | 39.99698 | 138.94279 | 40023 ft | 423 kts | 225° |
| 2026-04-28 08:10 | 39.95150 | 138.89517 | 40023 ft | 420 kts | 226° |
| 2026-04-28 08:10 | 39.90625 | 138.84770 | 40023 ft | 419 kts | 226° |
| 2026-04-28 08:11 | 39.86091 | 138.80048 | 40022 ft | 419 kts | 226° |
| 2026-04-28 08:11 | 39.81559 | 138.75343 | 40023 ft | 418 kts | 226° |
| 2026-04-28 08:12 | 39.77032 | 138.70638 | 40022 ft | 418 kts | 226° |
| 2026-04-28 08:12 | 39.72507 | 138.65935 | 40022 ft | 418 kts | 226° |
| 2026-04-28 08:13 | 39.67987 | 138.61244 | 40022 ft | 417 kts | 226° |
| 2026-04-28 08:13 | 39.63467 | 138.56558 | 40022 ft | 417 kts | 226° |
| 2026-04-28 08:14 | 39.58945 | 138.51880 | 40022 ft | 417 kts | 226° |
| 2026-04-28 08:14 | 39.54419 | 138.47205 | 40022 ft | 417 kts | 226° |
| 2026-04-28 08:15 | 39.49892 | 138.42537 | 40022 ft | 418 kts | 226° |
| 2026-04-28 08:15 | 39.45357 | 138.37866 | 40022 ft | 418 kts | 226° |
| 2026-04-28 08:16 | 39.40820 | 138.33200 | 40024 ft | 418 kts | 226° |
| 2026-04-28 08:16 | 39.36289 | 138.28529 | 40023 ft | 418 kts | 226° |
| 2026-04-28 08:17 | 39.31787 | 138.23839 | 40022 ft | 415 kts | 228° |
| 2026-04-28 08:17 | 39.27614 | 138.18791 | 40022 ft | 410 kts | 233° |
| 2026-04-28 08:18 | 39.23822 | 138.13384 | 40024 ft | 407 kts | 235° |
| 2026-04-28 08:18 | 39.20105 | 138.07922 | 40022 ft | 406 kts | 235° |
| 2026-04-28 08:19 | 39.16389 | 138.02470 | 40022 ft | 406 kts | 235° |
| 2026-04-28 08:19 | 39.12676 | 137.97028 | 40024 ft | 405 kts | 236° |
| 2026-04-28 08:20 | 39.08976 | 137.91611 | 40023 ft | 404 kts | 236° |
| 2026-04-28 08:20 | 39.05281 | 137.86203 | 40023 ft | 403 kts | 236° |
| 2026-04-28 08:21 | 39.01583 | 137.80804 | 40023 ft | 403 kts | 236° |
| 2026-04-28 08:21 | 38.97886 | 137.75412 | 40016 ft | 403 kts | 236° |
| 2026-04-28 08:22 | 38.94196 | 137.70039 | 39976 ft | 402 kts | 236° |
| 2026-04-28 08:22 | 38.90502 | 137.64673 | 39951 ft | 402 kts | 236° |
| 2026-04-28 08:23 | 38.86821 | 137.59364 | 39940 ft | 402 kts | 236° |
| 2026-04-28 08:23 | 38.83115 | 137.54031 | 39936 ft | 401 kts | 236° |
| 2026-04-28 08:24 | 38.79418 | 137.48702 | 39934 ft | 401 kts | 237° |
| 2026-04-28 08:24 | 38.75731 | 137.43387 | 39934 ft | 400 kts | 237° |
| 2026-04-28 08:25 | 38.72046 | 137.38078 | 39934 ft | 400 kts | 237° |
| 2026-04-28 08:26 | 38.66505 | 137.30100 | 39935 ft | 400 kts | 236° |
| 2026-04-28 08:26 | 38.62825 | 137.24797 | 39935 ft | 399 kts | 236° |
| 2026-04-28 08:27 | 38.59139 | 137.19510 | 39933 ft | 400 kts | 236° |
| 2026-04-28 08:27 | 38.55446 | 137.14226 | 39934 ft | 400 kts | 237° |
| 2026-04-28 08:28 | 38.51752 | 137.08949 | 39934 ft | 400 kts | 237° |
| 2026-04-28 08:28 | 38.48083 | 137.03719 | 39934 ft | 399 kts | 237° |
| 2026-04-28 08:29 | 38.44390 | 136.98463 | 39934 ft | 399 kts | 237° |
| 2026-04-28 08:29 | 38.40693 | 136.93211 | 39934 ft | 399 kts | 237° |
| 2026-04-28 08:30 | 38.36993 | 136.87964 | 39934 ft | 399 kts | 237° |
| 2026-04-28 08:30 | 38.33292 | 136.82722 | 39931 ft | 399 kts | 237° |
| 2026-04-28 08:31 | 38.29592 | 136.77493 | 39926 ft | 398 kts | 237° |
| 2026-04-28 08:31 | 38.25895 | 136.72276 | 39920 ft | 398 kts | 237° |
| 2026-04-28 08:32 | 38.22198 | 136.67068 | 39914 ft | 398 kts | 237° |
| 2026-04-28 08:32 | 38.18498 | 136.61865 | 39910 ft | 398 kts | 237° |
| 2026-04-28 08:33 | 38.14796 | 136.56667 | 39908 ft | 398 kts | 237° |
| 2026-04-28 08:33 | 38.11093 | 136.51477 | 39908 ft | 397 kts | 237° |
| 2026-04-28 08:34 | 38.07392 | 136.46300 | 39908 ft | 397 kts | 237° |
| 2026-04-28 08:34 | 38.03694 | 136.41136 | 39908 ft | 396 kts | 238° |
| 2026-04-28 08:35 | 37.99990 | 136.35974 | 39908 ft | 397 kts | 238° |
| 2026-04-28 08:35 | 37.96287 | 136.30808 | 39909 ft | 397 kts | 237° |
| 2026-04-28 08:36 | 37.92582 | 136.25642 | 39908 ft | 397 kts | 237° |
| 2026-04-28 08:36 | 37.88869 | 136.20488 | 39907 ft | 398 kts | 237° |
| 2026-04-28 08:37 | 37.85134 | 136.15355 | 39908 ft | 398 kts | 237° |
| 2026-04-28 08:37 | 37.81403 | 136.10220 | 39908 ft | 397 kts | 237° |
| 2026-04-28 08:38 | 37.77677 | 136.05089 | 39908 ft | 397 kts | 237° |
| 2026-04-28 08:38 | 37.73949 | 135.99959 | 39911 ft | 397 kts | 237° |
| 2026-04-28 08:39 | 37.70248 | 135.94870 | 39920 ft | 397 kts | 237° |
| 2026-04-28 08:39 | 37.66518 | 135.89746 | 39930 ft | 397 kts | 237° |
| 2026-04-28 08:40 | 37.62784 | 135.84625 | 39940 ft | 398 kts | 237° |
| 2026-04-28 08:40 | 37.59038 | 135.79498 | 39952 ft | 399 kts | 237° |
| 2026-04-28 08:41 | 37.55288 | 135.74370 | 39959 ft | 399 kts | 237° |
| 2026-04-28 08:41 | 37.51538 | 135.69251 | 39960 ft | 398 kts | 237° |
| 2026-04-28 08:42 | 37.47788 | 135.64142 | 39961 ft | 398 kts | 237° |
| 2026-04-28 08:42 | 37.44033 | 135.59033 | 39960 ft | 400 kts | 237° |
| 2026-04-28 08:43 | 37.40263 | 135.53912 | 39960 ft | 401 kts | 237° |
| 2026-04-28 08:43 | 37.36482 | 135.48784 | 39960 ft | 401 kts | 237° |
| 2026-04-28 08:44 | 37.32693 | 135.43654 | 39960 ft | 402 kts | 237° |
| 2026-04-28 08:44 | 37.28896 | 135.38524 | 39960 ft | 403 kts | 237° |
| 2026-04-28 08:45 | 37.25091 | 135.33385 | 39963 ft | 403 kts | 237° |
| 2026-04-28 08:45 | 37.21285 | 135.28232 | 39958 ft | 404 kts | 237° |
| 2026-04-28 08:46 | 37.17468 | 135.23084 | 39953 ft | 405 kts | 236° |
| 2026-04-28 08:46 | 37.13629 | 135.17923 | 39946 ft | 406 kts | 237° |
| 2026-04-28 08:47 | 37.09782 | 135.12759 | 39940 ft | 407 kts | 237° |
| 2026-04-28 08:47 | 37.05930 | 135.07600 | 39937 ft | 406 kts | 236° |
| 2026-04-28 08:48 | 37.02082 | 135.02458 | 39934 ft | 407 kts | 237° |
| 2026-04-28 08:48 | 36.98224 | 134.97308 | 39934 ft | 407 kts | 237° |
| 2026-04-28 08:49 | 36.94363 | 134.92163 | 39934 ft | 407 kts | 237° |
| 2026-04-28 08:49 | 36.90499 | 134.87024 | 39934 ft | 407 kts | 237° |
| 2026-04-28 08:50 | 36.86649 | 134.81938 | 39934 ft | 407 kts | 236° |
| 2026-04-28 08:50 | 36.82764 | 134.76820 | 39932 ft | 408 kts | 237° |
| 2026-04-28 08:51 | 36.78873 | 134.71683 | 39934 ft | 409 kts | 237° |
| 2026-04-28 08:51 | 36.74977 | 134.66539 | 39933 ft | 409 kts | 237° |
| 2026-04-28 08:52 | 36.71075 | 134.61394 | 39934 ft | 410 kts | 237° |
| 2026-04-28 08:52 | 36.67171 | 134.56250 | 39934 ft | 410 kts | 237° |
| 2026-04-28 08:53 | 36.63258 | 134.51099 | 39934 ft | 411 kts | 237° |
| 2026-04-28 08:53 | 36.59334 | 134.45944 | 39934 ft | 412 kts | 237° |
| 2026-04-28 08:54 | 36.55400 | 134.40784 | 39933 ft | 413 kts | 237° |
| 2026-04-28 08:54 | 36.51455 | 134.35616 | 39934 ft | 414 kts | 237° |
| 2026-04-28 08:55 | 36.47508 | 134.30440 | 39935 ft | 414 kts | 237° |
| 2026-04-28 08:55 | 36.43555 | 134.25262 | 39934 ft | 414 kts | 237° |
| 2026-04-28 08:56 | 36.39586 | 134.20085 | 39934 ft | 416 kts | 237° |
| 2026-04-28 08:56 | 36.35607 | 134.14908 | 39933 ft | 416 kts | 237° |
| 2026-04-28 08:57 | 36.31620 | 134.09731 | 39934 ft | 417 kts | 237° |
| 2026-04-28 08:57 | 36.27629 | 134.04556 | 39934 ft | 417 kts | 237° |
| 2026-04-28 08:58 | 36.23639 | 133.99388 | 39934 ft | 417 kts | 237° |
| 2026-04-28 08:58 | 36.19641 | 133.94208 | 39934 ft | 418 kts | 237° |
| 2026-04-28 08:59 | 36.15634 | 133.89027 | 39934 ft | 418 kts | 237° |
| 2026-04-28 08:59 | 36.11622 | 133.83853 | 39934 ft | 418 kts | 237° |
| 2026-04-28 09:00 | 36.07607 | 133.78683 | 39934 ft | 418 kts | 237° |
| 2026-04-28 09:00 | 36.03590 | 133.73520 | 39934 ft | 418 kts | 237° |
| 2026-04-28 09:01 | 35.99571 | 133.68361 | 39935 ft | 418 kts | 237° |
| 2026-04-28 09:01 | 35.95545 | 133.63199 | 39934 ft | 419 kts | 237° |
| 2026-04-28 09:02 | 35.91508 | 133.58034 | 39936 ft | 419 kts | 237° |
| 2026-04-28 09:02 | 35.87463 | 133.52885 | 39933 ft | 419 kts | 237° |
| 2026-04-28 09:03 | 35.83437 | 133.47788 | 39933 ft | 420 kts | 237° |
| 2026-04-28 09:03 | 35.79384 | 133.42644 | 39934 ft | 420 kts | 237° |
| 2026-04-28 09:04 | 35.75334 | 133.37497 | 39934 ft | 420 kts | 237° |
| 2026-04-28 09:04 | 35.71279 | 133.32342 | 39936 ft | 421 kts | 236° |
| 2026-04-28 09:05 | 35.67224 | 133.27179 | 39935 ft | 421 kts | 236° |
| 2026-04-28 09:05 | 35.63160 | 133.22032 | 39934 ft | 421 kts | 236° |
| 2026-04-28 09:06 | 35.59074 | 133.16901 | 39934 ft | 423 kts | 234° |
| 2026-04-28 09:06 | 35.54664 | 133.12051 | 39936 ft | 431 kts | 230° |
| 2026-04-28 09:07 | 35.49813 | 133.07652 | 39940 ft | 440 kts | 224° |
| 2026-04-28 09:07 | 35.44536 | 133.03775 | 39945 ft | 448 kts | 219° |
| 2026-04-28 09:08 | 35.39055 | 133.00192 | 39950 ft | 448 kts | 219° |
| 2026-04-28 09:08 | 35.33584 | 132.96622 | 39954 ft | 447 kts | 219° |
| 2026-04-28 09:09 | 35.28112 | 132.93057 | 39958 ft | 448 kts | 219° |
| 2026-04-28 09:09 | 35.22633 | 132.89494 | 39960 ft | 448 kts | 219° |
| 2026-04-28 09:10 | 35.17149 | 132.85930 | 39961 ft | 448 kts | 219° |
| 2026-04-28 09:10 | 35.11690 | 132.82324 | 39961 ft | 448 kts | 219° |
| 2026-04-28 09:11 | 35.06227 | 132.78714 | 39961 ft | 448 kts | 219° |
| 2026-04-28 09:11 | 35.00760 | 132.75116 | 39961 ft | 447 kts | 219° |
| 2026-04-28 09:12 | 34.95310 | 132.71529 | 39961 ft | 447 kts | 219° |
| 2026-04-28 09:12 | 34.89849 | 132.67938 | 39961 ft | 448 kts | 219° |
| 2026-04-28 09:13 | 34.84370 | 132.64366 | 39960 ft | 449 kts | 219° |
| 2026-04-28 09:13 | 34.78886 | 132.60791 | 39960 ft | 449 kts | 219° |
| 2026-04-28 09:14 | 34.73396 | 132.57208 | 39960 ft | 449 kts | 219° |
| 2026-04-28 09:14 | 34.67930 | 132.53633 | 39964 ft | 443 kts | 218° |
| 2026-04-28 09:15 | 34.62559 | 132.50139 | 39961 ft | 438 kts | 218° |
| 2026-04-28 09:15 | 34.57207 | 132.46658 | 39961 ft | 438 kts | 218° |
| 2026-04-28 09:16 | 34.51858 | 132.43179 | 39961 ft | 438 kts | 217° |
| 2026-04-28 09:16 | 34.46503 | 132.39700 | 39961 ft | 439 kts | 217° |
| 2026-04-28 09:17 | 34.41148 | 132.36230 | 39961 ft | 438 kts | 217° |
| 2026-04-28 09:17 | 34.35802 | 132.32748 | 39962 ft | 439 kts | 217° |
| 2026-04-28 09:18 | 34.30452 | 132.29251 | 39961 ft | 439 kts | 217° |
| 2026-04-28 09:18 | 34.25096 | 132.25768 | 39961 ft | 439 kts | 217° |
| 2026-04-28 09:19 | 34.19731 | 132.22293 | 39961 ft | 440 kts | 217° |
| 2026-04-28 09:19 | 34.14355 | 132.18819 | 39961 ft | 440 kts | 217° |
| 2026-04-28 09:20 | 34.08969 | 132.15370 | 39961 ft | 441 kts | 216° |
| 2026-04-28 09:20 | 34.03367 | 132.12293 | 39961 ft | 446 kts | 212° |
| 2026-04-28 09:21 | 33.97697 | 132.09338 | 39961 ft | 446 kts | 212° |
| 2026-04-28 09:21 | 33.92029 | 132.06389 | 39961 ft | 446 kts | 212° |
| 2026-04-28 09:22 | 33.86352 | 132.03453 | 39961 ft | 446 kts | 212° |
| 2026-04-28 09:22 | 33.80674 | 132.00528 | 39961 ft | 446 kts | 212° |
| 2026-04-28 09:23 | 33.74998 | 131.97594 | 39961 ft | 446 kts | 212° |
| 2026-04-28 09:23 | 33.69336 | 131.94659 | 39961 ft | 446 kts | 212° |
| 2026-04-28 09:24 | 33.63657 | 131.91716 | 39961 ft | 447 kts | 212° |
| 2026-04-28 09:24 | 33.57972 | 131.88777 | 39961 ft | 447 kts | 212° |
| 2026-04-28 09:25 | 33.52278 | 131.85838 | 39964 ft | 447 kts | 212° |
| 2026-04-28 09:25 | 33.46578 | 131.82899 | 39970 ft | 448 kts | 212° |
| 2026-04-28 09:26 | 33.40874 | 131.79964 | 39979 ft | 450 kts | 212° |
| 2026-04-28 09:26 | 33.35142 | 131.77017 | 39984 ft | 450 kts | 212° |
| 2026-04-28 09:27 | 33.26553 | 131.72612 | 39987 ft | 451 kts | 212° |
| 2026-04-28 09:27 | 33.20975 | 131.69363 | 39987 ft | 445 kts | 217° |
| 2026-04-28 09:28 | 33.15713 | 131.65582 | 39987 ft | 442 kts | 220° |
| 2026-04-28 09:28 | 33.10510 | 131.61716 | 39988 ft | 443 kts | 219° |
| 2026-04-28 09:29 | 33.05297 | 131.57851 | 39987 ft | 443 kts | 219° |
| 2026-04-28 09:29 | 33.00073 | 131.53984 | 39987 ft | 445 kts | 219° |
| 2026-04-28 09:30 | 32.94835 | 131.50111 | 39987 ft | 445 kts | 219° |
| 2026-04-28 09:30 | 32.89586 | 131.46237 | 39987 ft | 446 kts | 219° |
| 2026-04-28 09:31 | 32.84325 | 131.42383 | 39987 ft | 446 kts | 219° |
| 2026-04-28 09:31 | 32.79071 | 131.38506 | 39987 ft | 446 kts | 219° |
| 2026-04-28 09:32 | 32.73836 | 131.34584 | 39989 ft | 446 kts | 219° |
| 2026-04-28 09:32 | 32.68585 | 131.30627 | 39988 ft | 447 kts | 219° |
| 2026-04-28 09:33 | 32.63340 | 131.26700 | 39987 ft | 448 kts | 219° |
| 2026-04-28 09:33 | 32.58089 | 131.22784 | 39987 ft | 448 kts | 219° |
| 2026-04-28 09:34 | 32.52829 | 131.18869 | 39987 ft | 448 kts | 219° |
| 2026-04-28 09:34 | 32.47563 | 131.14957 | 39987 ft | 449 kts | 219° |
| 2026-04-28 09:35 | 32.42296 | 131.11050 | 39986 ft | 449 kts | 219° |
| 2026-04-28 09:35 | 32.37002 | 131.07175 | 39982 ft | 449 kts | 218° |
| 2026-04-28 09:36 | 32.31688 | 131.03332 | 39974 ft | 449 kts | 218° |
| 2026-04-28 09:36 | 32.26374 | 130.99493 | 39969 ft | 449 kts | 218° |
| 2026-04-28 09:37 | 32.21059 | 130.95659 | 39971 ft | 450 kts | 218° |
| 2026-04-28 09:37 | 32.15741 | 130.91826 | 39977 ft | 450 kts | 218° |
| 2026-04-28 09:38 | 32.10432 | 130.87981 | 39985 ft | 449 kts | 219° |
| 2026-04-28 09:38 | 32.05149 | 130.84096 | 39993 ft | 450 kts | 219° |
| 2026-04-28 09:39 | 31.99861 | 130.80214 | 40002 ft | 450 kts | 219° |
| 2026-04-28 09:39 | 31.94589 | 130.76350 | 40009 ft | 452 kts | 218° |
| 2026-04-28 09:40 | 31.89253 | 130.72459 | 40013 ft | 453 kts | 218° |
| 2026-04-28 09:40 | 31.83907 | 130.68587 | 40015 ft | 453 kts | 218° |
| 2026-04-28 09:41 | 31.78574 | 130.64716 | 40015 ft | 452 kts | 218° |
| 2026-04-28 09:41 | 31.73226 | 130.60863 | 40015 ft | 454 kts | 217° |
| 2026-04-28 09:42 | 31.67607 | 130.57459 | 40015 ft | 459 kts | 211° |
| 2026-04-28 09:42 | 31.61684 | 130.54634 | 40015 ft | 462 kts | 208° |
| 2026-04-28 09:43 | 31.55698 | 130.51950 | 40015 ft | 463 kts | 207° |
| 2026-04-28 09:43 | 31.49689 | 130.49316 | 40016 ft | 463 kts | 207° |
| 2026-04-28 09:44 | 31.43682 | 130.46681 | 40016 ft | 463 kts | 207° |
| 2026-04-28 09:44 | 31.37676 | 130.44046 | 40016 ft | 463 kts | 207° |
| 2026-04-28 09:45 | 31.31668 | 130.41411 | 40016 ft | 463 kts | 207° |
| 2026-04-28 09:45 | 31.25666 | 130.38760 | 40016 ft | 462 kts | 208° |
| 2026-04-28 09:46 | 31.19728 | 130.35963 | 40016 ft | 462 kts | 209° |
| 2026-04-28 09:46 | 31.13805 | 130.33145 | 40018 ft | 462 kts | 208° |
| 2026-04-28 09:47 | 31.07855 | 130.30331 | 40023 ft | 464 kts | 208° |
| 2026-04-28 09:47 | 31.01890 | 130.27534 | 40032 ft | 464 kts | 208° |
| 2026-04-28 09:48 | 30.95919 | 130.24745 | 40038 ft | 464 kts | 208° |
| 2026-04-28 09:48 | 30.89944 | 130.21962 | 40041 ft | 464 kts | 208° |
| 2026-04-28 09:49 | 30.83957 | 130.19189 | 40041 ft | 465 kts | 208° |
| 2026-04-28 09:49 | 30.77961 | 130.16415 | 40042 ft | 466 kts | 208° |
| 2026-04-28 09:50 | 30.71967 | 130.13638 | 40042 ft | 466 kts | 208° |
| 2026-04-28 09:50 | 30.65968 | 130.10858 | 40042 ft | 467 kts | 208° |
| 2026-04-28 09:51 | 30.59956 | 130.08077 | 40042 ft | 467 kts | 208° |
| 2026-04-28 09:51 | 30.53936 | 130.05327 | 40042 ft | 468 kts | 207° |
| 2026-04-28 09:52 | 30.47885 | 130.02620 | 40042 ft | 469 kts | 207° |
| 2026-04-28 09:52 | 30.41875 | 129.99921 | 40042 ft | 469 kts | 207° |
| 2026-04-28 09:53 | 30.35817 | 129.97185 | 40042 ft | 469 kts | 207° |
| 2026-04-28 09:53 | 30.29712 | 129.94544 | 40042 ft | 471 kts | 206° |
| 2026-04-28 09:54 | 30.23560 | 129.92009 | 40042 ft | 471 kts | 206° |
| 2026-04-28 09:54 | 30.17407 | 129.89468 | 40042 ft | 471 kts | 206° |
| 2026-04-28 09:55 | 30.11259 | 129.86923 | 40042 ft | 471 kts | 206° |
| 2026-04-28 09:55 | 30.05211 | 129.84155 | 40042 ft | 467 kts | 211° |
| 2026-04-28 09:56 | 29.99493 | 129.80745 | 40042 ft | 462 kts | 216° |
| 2026-04-28 09:56 | 29.94162 | 129.76726 | 40042 ft | 457 kts | 222° |
| 2026-04-28 09:57 | 29.89158 | 129.72257 | 40042 ft | 456 kts | 224° |
| 2026-04-28 09:57 | 29.84176 | 129.67773 | 40042 ft | 456 kts | 224° |
| 2026-04-28 09:58 | 29.79191 | 129.63290 | 40042 ft | 456 kts | 224° |
| 2026-04-28 09:58 | 29.74206 | 129.58806 | 40042 ft | 457 kts | 224° |
| 2026-04-28 09:59 | 29.69219 | 129.54321 | 40042 ft | 457 kts | 224° |
| 2026-04-28 09:59 | 29.64232 | 129.49840 | 40042 ft | 457 kts | 224° |
| 2026-04-28 10:00 | 29.59246 | 129.45363 | 40042 ft | 456 kts | 223° |
| 2026-04-28 10:00 | 29.54265 | 129.40895 | 40042 ft | 456 kts | 223° |
| 2026-04-28 10:01 | 29.49283 | 129.36436 | 40042 ft | 456 kts | 223° |
| 2026-04-28 10:01 | 29.44304 | 129.31969 | 40043 ft | 456 kts | 223° |
| 2026-04-28 10:02 | 29.39358 | 129.27528 | 40042 ft | 457 kts | 223° |
| 2026-04-28 10:02 | 29.34366 | 129.23062 | 40042 ft | 457 kts | 223° |
| 2026-04-28 10:03 | 29.29364 | 129.18602 | 40042 ft | 457 kts | 223° |
| 2026-04-28 10:03 | 29.24359 | 129.14149 | 40042 ft | 457 kts | 223° |
| 2026-04-28 10:04 | 29.19351 | 129.09698 | 40042 ft | 457 kts | 223° |
| 2026-04-28 10:04 | 29.14342 | 129.05254 | 40042 ft | 457 kts | 223° |
| 2026-04-28 10:05 | 29.09329 | 129.00810 | 40042 ft | 458 kts | 223° |
| 2026-04-28 10:05 | 29.04310 | 128.96368 | 40042 ft | 458 kts | 223° |
| 2026-04-28 10:06 | 28.99283 | 128.91925 | 40042 ft | 459 kts | 223° |
| 2026-04-28 10:06 | 28.94253 | 128.87483 | 40042 ft | 459 kts | 223° |
| 2026-04-28 10:07 | 28.89222 | 128.83048 | 40042 ft | 459 kts | 223° |
| 2026-04-28 10:07 | 28.84176 | 128.78632 | 40042 ft | 459 kts | 223° |
| 2026-04-28 10:08 | 28.79131 | 128.74214 | 40042 ft | 459 kts | 223° |
| 2026-04-28 10:08 | 28.74091 | 128.69794 | 40042 ft | 459 kts | 223° |
| 2026-04-28 10:09 | 28.69050 | 128.65372 | 40042 ft | 459 kts | 223° |
| 2026-04-28 10:09 | 28.64001 | 128.60950 | 40042 ft | 460 kts | 223° |
| 2026-04-28 10:10 | 28.58946 | 128.56526 | 40042 ft | 460 kts | 223° |
| 2026-04-28 10:10 | 28.53886 | 128.52101 | 40042 ft | 461 kts | 223° |
| 2026-04-28 10:11 | 28.48816 | 128.47675 | 40042 ft | 461 kts | 223° |
| 2026-04-28 10:11 | 28.43744 | 128.43253 | 40042 ft | 461 kts | 223° |
| 2026-04-28 10:12 | 28.38669 | 128.38834 | 40042 ft | 461 kts | 223° |
| 2026-04-28 10:12 | 28.33588 | 128.34413 | 40044 ft | 462 kts | 222° |
| 2026-04-28 10:13 | 28.28512 | 128.29979 | 40042 ft | 462 kts | 222° |
| 2026-04-28 10:13 | 28.23424 | 128.25546 | 40042 ft | 463 kts | 222° |
| 2026-04-28 10:14 | 28.18328 | 128.21123 | 40042 ft | 463 kts | 222° |
| 2026-04-28 10:14 | 28.13228 | 128.16707 | 40042 ft | 463 kts | 222° |
| 2026-04-28 10:15 | 28.08121 | 128.12291 | 40043 ft | 464 kts | 222° |
| 2026-04-28 10:15 | 28.03048 | 128.07912 | 40045 ft | 464 kts | 222° |
| 2026-04-28 10:16 | 27.97935 | 128.03505 | 40047 ft | 464 kts | 222° |
| 2026-04-28 10:16 | 27.92822 | 127.99101 | 40050 ft | 464 kts | 222° |
| 2026-04-28 10:17 | 27.87702 | 127.94705 | 40053 ft | 464 kts | 222° |
| 2026-04-28 10:17 | 27.82573 | 127.90327 | 40056 ft | 464 kts | 222° |
| 2026-04-28 10:18 | 27.77448 | 127.85941 | 40059 ft | 464 kts | 222° |
| 2026-04-28 10:18 | 27.72327 | 127.81556 | 40059 ft | 464 kts | 222° |
| 2026-04-28 10:19 | 27.67206 | 127.77172 | 40060 ft | 464 kts | 222° |
| 2026-04-28 10:19 | 27.62083 | 127.72794 | 40060 ft | 464 kts | 222° |
| 2026-04-28 10:20 | 27.56960 | 127.68418 | 40060 ft | 464 kts | 222° |
| 2026-04-28 10:20 | 27.51834 | 127.64047 | 40060 ft | 464 kts | 222° |
| 2026-04-28 10:21 | 27.46912 | 127.59438 | 40060 ft | 460 kts | 227° |
| 2026-04-28 10:21 | 27.42275 | 127.54520 | 40060 ft | 460 kts | 228° |
| 2026-04-28 10:22 | 27.37646 | 127.49594 | 40060 ft | 460 kts | 228° |
| 2026-04-28 10:22 | 27.33013 | 127.44674 | 40060 ft | 460 kts | 228° |
| 2026-04-28 10:23 | 27.28381 | 127.39761 | 40060 ft | 459 kts | 228° |
| 2026-04-28 10:23 | 27.23752 | 127.34860 | 40060 ft | 458 kts | 227° |
| 2026-04-28 10:24 | 27.19136 | 127.29952 | 40060 ft | 459 kts | 228° |
| 2026-04-28 10:24 | 27.14514 | 127.25050 | 40060 ft | 459 kts | 228° |
| 2026-04-28 10:25 | 27.09885 | 127.20156 | 40060 ft | 459 kts | 227° |
| 2026-04-28 10:25 | 27.05250 | 127.15269 | 40060 ft | 459 kts | 227° |
| 2026-04-28 10:26 | 27.00614 | 127.10387 | 40060 ft | 459 kts | 227° |
| 2026-04-28 10:26 | 26.96007 | 127.05544 | 40060 ft | 459 kts | 228° |
| 2026-04-28 10:27 | 26.91360 | 127.00663 | 40059 ft | 459 kts | 228° |
| 2026-04-28 10:27 | 26.86701 | 126.95794 | 40056 ft | 460 kts | 227° |
| 2026-04-28 10:28 | 26.82034 | 126.90935 | 40053 ft | 460 kts | 228° |
| 2026-04-28 10:29 | 26.75023 | 126.83615 | 40051 ft | 460 kts | 228° |
| 2026-04-28 10:29 | 26.70357 | 126.78743 | 40050 ft | 461 kts | 228° |
| 2026-04-28 10:30 | 26.65683 | 126.73869 | 40050 ft | 461 kts | 228° |
| 2026-04-28 10:30 | 26.61006 | 126.68993 | 40051 ft | 462 kts | 228° |
| 2026-04-28 10:31 | 26.56325 | 126.64120 | 40051 ft | 462 kts | 228° |
| 2026-04-28 10:31 | 26.51636 | 126.59246 | 40051 ft | 462 kts | 228° |
| 2026-04-28 10:32 | 26.46941 | 126.54369 | 40051 ft | 463 kts | 228° |
| 2026-04-28 10:32 | 26.42275 | 126.49528 | 40051 ft | 463 kts | 228° |
| 2026-04-28 10:33 | 26.37565 | 126.44648 | 40050 ft | 464 kts | 228° |
| 2026-04-28 10:33 | 26.32845 | 126.39764 | 40050 ft | 465 kts | 229° |
| 2026-04-28 10:34 | 26.28119 | 126.34879 | 40049 ft | 465 kts | 228° |
| 2026-04-28 10:34 | 26.23395 | 126.29979 | 40047 ft | 465 kts | 228° |
| 2026-04-28 10:35 | 26.18665 | 126.25092 | 40045 ft | 465 kts | 228° |
| 2026-04-28 10:35 | 26.13923 | 126.20209 | 40044 ft | 466 kts | 228° |
| 2026-04-28 10:36 | 26.09194 | 126.15316 | 40043 ft | 466 kts | 229° |
| 2026-04-28 10:36 | 26.04460 | 126.10422 | 40044 ft | 467 kts | 228° |
| 2026-04-28 10:37 | 25.99717 | 126.05531 | 40044 ft | 467 kts | 228° |
| 2026-04-28 10:37 | 25.94973 | 126.00648 | 40044 ft | 466 kts | 228° |
| 2026-04-28 10:38 | 25.90227 | 125.95772 | 40043 ft | 466 kts | 228° |
| 2026-04-28 10:38 | 25.85467 | 125.90913 | 40040 ft | 466 kts | 228° |
| 2026-04-28 10:39 | 25.80705 | 125.86056 | 40036 ft | 466 kts | 228° |
| 2026-04-28 10:39 | 25.75949 | 125.81197 | 40031 ft | 466 kts | 228° |
| 2026-04-28 10:40 | 25.71202 | 125.76344 | 40025 ft | 466 kts | 228° |
| 2026-04-28 10:40 | 25.66455 | 125.71496 | 40021 ft | 466 kts | 228° |
| 2026-04-28 10:41 | 25.61709 | 125.66651 | 40018 ft | 465 kts | 228° |
| 2026-04-28 10:41 | 25.56963 | 125.61813 | 40018 ft | 465 kts | 228° |
| 2026-04-28 10:42 | 25.52216 | 125.56979 | 40018 ft | 465 kts | 228° |
| 2026-04-28 10:42 | 25.47472 | 125.52154 | 40017 ft | 465 kts | 228° |
| 2026-04-28 10:43 | 25.42740 | 125.47347 | 40017 ft | 465 kts | 228° |
| 2026-04-28 10:43 | 25.37995 | 125.42532 | 40017 ft | 465 kts | 228° |
| 2026-04-28 10:44 | 25.33250 | 125.37721 | 40017 ft | 464 kts | 228° |
| 2026-04-28 10:44 | 25.28511 | 125.32916 | 40018 ft | 464 kts | 228° |
| 2026-04-28 10:45 | 25.23778 | 125.28103 | 40018 ft | 464 kts | 228° |
| 2026-04-28 10:45 | 25.19041 | 125.23304 | 40017 ft | 463 kts | 227° |
| 2026-04-28 10:46 | 25.14301 | 125.18518 | 40017 ft | 463 kts | 227° |
| 2026-04-28 10:46 | 25.09557 | 125.13734 | 40017 ft | 464 kts | 227° |
| 2026-04-28 10:47 | 25.04811 | 125.08957 | 40017 ft | 463 kts | 227° |
| 2026-04-28 10:47 | 25.00065 | 125.04187 | 40017 ft | 463 kts | 227° |
| 2026-04-28 10:48 | 24.95323 | 124.99425 | 40017 ft | 463 kts | 227° |
| 2026-04-28 10:48 | 24.90573 | 124.94664 | 40017 ft | 463 kts | 227° |
| 2026-04-28 10:49 | 24.85811 | 124.89920 | 40017 ft | 463 kts | 227° |
| 2026-04-28 10:49 | 24.81057 | 124.85175 | 40017 ft | 463 kts | 227° |
| 2026-04-28 10:50 | 24.76306 | 124.80428 | 40017 ft | 463 kts | 227° |
| 2026-04-28 10:50 | 24.71555 | 124.75685 | 40018 ft | 463 kts | 227° |
| 2026-04-28 10:51 | 24.66807 | 124.70952 | 40017 ft | 462 kts | 227° |
| 2026-04-28 10:51 | 24.62060 | 124.66224 | 40017 ft | 462 kts | 227° |
| 2026-04-28 10:52 | 24.57346 | 124.61534 | 40017 ft | 462 kts | 227° |
| 2026-04-28 10:52 | 24.52591 | 124.56808 | 40017 ft | 463 kts | 227° |
| 2026-04-28 10:53 | 24.47832 | 124.52084 | 40017 ft | 463 kts | 227° |
| 2026-04-28 10:53 | 24.43070 | 124.47362 | 40017 ft | 463 kts | 227° |
| 2026-04-28 10:54 | 24.38306 | 124.42642 | 40017 ft | 463 kts | 227° |
| 2026-04-28 10:54 | 24.33541 | 124.37929 | 40018 ft | 463 kts | 227° |
| 2026-04-28 10:55 | 24.28781 | 124.33218 | 40018 ft | 463 kts | 227° |
| 2026-04-28 10:55 | 24.24028 | 124.28498 | 40018 ft | 463 kts | 227° |
| 2026-04-28 10:56 | 24.19265 | 124.23789 | 40017 ft | 463 kts | 227° |
| 2026-04-28 10:56 | 24.14496 | 124.19089 | 40017 ft | 463 kts | 227° |
| 2026-04-28 10:57 | 24.09722 | 124.14395 | 40017 ft | 463 kts | 227° |
| 2026-04-28 10:57 | 24.04945 | 124.09705 | 40017 ft | 463 kts | 227° |
| 2026-04-28 10:58 | 24.00174 | 124.05011 | 40016 ft | 462 kts | 228° |
| 2026-04-28 10:58 | 23.95713 | 124.00032 | 40016 ft | 458 kts | 234° |
| 2026-04-28 10:59 | 23.91763 | 123.94642 | 40014 ft | 454 kts | 239° |
| 2026-04-28 10:59 | 23.88202 | 123.88987 | 40010 ft | 453 kts | 240° |
| 2026-04-28 11:00 | 23.84653 | 123.83327 | 40004 ft | 453 kts | 240° |
| 2026-04-28 11:00 | 23.81114 | 123.77666 | 39996 ft | 452 kts | 240° |
| 2026-04-28 11:01 | 23.77578 | 123.72007 | 39991 ft | 453 kts | 240° |
| 2026-04-28 11:01 | 23.74040 | 123.66345 | 39990 ft | 453 kts | 240° |
| 2026-04-28 11:02 | 23.70502 | 123.60689 | 39989 ft | 452 kts | 240° |
| 2026-04-28 11:02 | 23.66963 | 123.55037 | 39989 ft | 453 kts | 240° |
| 2026-04-28 11:03 | 23.63420 | 123.49384 | 39989 ft | 453 kts | 240° |
| 2026-04-28 11:03 | 23.59876 | 123.43738 | 39989 ft | 452 kts | 240° |
| 2026-04-28 11:04 | 23.56334 | 123.38097 | 39989 ft | 452 kts | 240° |
| 2026-04-28 11:04 | 23.52791 | 123.32457 | 39990 ft | 452 kts | 240° |
| 2026-04-28 11:05 | 23.49254 | 123.26817 | 39990 ft | 452 kts | 239° |
| 2026-04-28 11:05 | 23.45712 | 123.21190 | 39989 ft | 452 kts | 239° |
| 2026-04-28 11:06 | 23.42191 | 123.15610 | 39989 ft | 452 kts | 239° |
| 2026-04-28 11:06 | 23.38636 | 123.09986 | 39989 ft | 452 kts | 239° |
| 2026-04-28 11:07 | 23.35079 | 123.04370 | 39989 ft | 452 kts | 239° |
| 2026-04-28 11:07 | 23.31526 | 122.98758 | 39989 ft | 451 kts | 239° |
| 2026-04-28 11:08 | 23.27979 | 122.93150 | 39989 ft | 451 kts | 239° |
| 2026-04-28 11:08 | 23.24430 | 122.87550 | 39989 ft | 451 kts | 239° |
| 2026-04-28 11:09 | 23.20880 | 122.81960 | 39989 ft | 450 kts | 239° |
| 2026-04-28 11:09 | 23.17328 | 122.76376 | 39989 ft | 451 kts | 239° |
| 2026-04-28 11:10 | 23.13771 | 122.70789 | 39990 ft | 451 kts | 239° |
| 2026-04-28 11:10 | 23.10213 | 122.65209 | 39989 ft | 451 kts | 239° |
| 2026-04-28 11:11 | 23.06655 | 122.59635 | 39989 ft | 450 kts | 239° |
| 2026-04-28 11:11 | 23.03096 | 122.54067 | 39989 ft | 450 kts | 239° |
| 2026-04-28 11:12 | 22.99539 | 122.48505 | 39989 ft | 450 kts | 239° |
| 2026-04-28 11:12 | 22.95978 | 122.42943 | 39989 ft | 450 kts | 239° |
| 2026-04-28 11:13 | 22.92416 | 122.37387 | 39990 ft | 450 kts | 239° |
| 2026-04-28 11:13 | 22.88835 | 122.31805 | 39990 ft | 450 kts | 238° |
| 2026-04-28 11:14 | 22.85288 | 122.26305 | 39989 ft | 450 kts | 238° |
| 2026-04-28 11:14 | 22.81712 | 122.20759 | 39989 ft | 450 kts | 238° |
| 2026-04-28 11:15 | 22.78140 | 122.15217 | 39989 ft | 450 kts | 238° |
| 2026-04-28 11:15 | 22.74570 | 122.09679 | 39989 ft | 450 kts | 238° |
| 2026-04-28 11:16 | 22.70997 | 122.04141 | 39989 ft | 450 kts | 238° |
| 2026-04-28 11:16 | 22.67425 | 121.98610 | 39989 ft | 449 kts | 238° |
| 2026-04-28 11:17 | 22.63853 | 121.93085 | 39989 ft | 449 kts | 238° |
| 2026-04-28 11:17 | 22.60280 | 121.87566 | 39989 ft | 449 kts | 238° |
| 2026-04-28 11:18 | 22.56707 | 121.82053 | 39989 ft | 449 kts | 238° |
| 2026-04-28 11:18 | 22.53133 | 121.76541 | 39989 ft | 449 kts | 237° |
| 2026-04-28 11:19 | 22.49558 | 121.71036 | 39989 ft | 449 kts | 237° |
| 2026-04-28 11:19 | 22.45982 | 121.65534 | 39989 ft | 449 kts | 237° |
| 2026-04-28 11:20 | 22.42404 | 121.60036 | 39989 ft | 449 kts | 237° |
| 2026-04-28 11:20 | 22.38825 | 121.54540 | 39989 ft | 449 kts | 237° |
| 2026-04-28 11:21 | 22.35244 | 121.49047 | 39989 ft | 449 kts | 237° |
| 2026-04-28 11:21 | 22.31661 | 121.43557 | 39989 ft | 448 kts | 237° |
| 2026-04-28 11:22 | 22.28079 | 121.38073 | 39989 ft | 448 kts | 237° |
| 2026-04-28 11:22 | 22.24499 | 121.32594 | 39990 ft | 448 kts | 237° |
| 2026-04-28 11:23 | 22.20922 | 121.27106 | 39989 ft | 448 kts | 237° |
| 2026-04-28 11:23 | 22.17337 | 121.21627 | 39989 ft | 448 kts | 237° |
| 2026-04-28 11:24 | 22.13747 | 121.16154 | 39988 ft | 448 kts | 237° |
| 2026-04-28 11:24 | 22.10149 | 121.10680 | 39985 ft | 449 kts | 237° |
| 2026-04-28 11:25 | 22.06548 | 121.05214 | 39980 ft | 449 kts | 237° |
| 2026-04-28 11:25 | 22.02948 | 120.99744 | 39975 ft | 449 kts | 237° |
| 2026-04-28 11:26 | 21.99352 | 120.94275 | 39969 ft | 449 kts | 237° |
| 2026-04-28 11:26 | 21.95750 | 120.88810 | 39964 ft | 449 kts | 236° |
| 2026-04-28 11:27 | 21.91855 | 120.83579 | 39964 ft | 451 kts | 231° |
| 2026-04-28 11:27 | 21.87488 | 120.78751 | 39964 ft | 452 kts | 227° |
| 2026-04-28 11:28 | 21.82981 | 120.74065 | 39963 ft | 452 kts | 227° |
| 2026-04-28 11:28 | 21.78480 | 120.69378 | 39963 ft | 452 kts | 227° |
| 2026-04-28 11:29 | 21.73984 | 120.64687 | 39963 ft | 452 kts | 227° |
| 2026-04-28 11:29 | 21.69488 | 120.59996 | 39963 ft | 452 kts | 227° |
| 2026-04-28 11:30 | 21.64993 | 120.55308 | 39963 ft | 452 kts | 227° |
| 2026-04-28 11:30 | 21.58264 | 120.48298 | 39963 ft | 452 kts | 227° |
| 2026-04-28 11:31 | 21.53766 | 120.43617 | 39963 ft | 452 kts | 227° |
| 2026-04-28 11:31 | 21.49265 | 120.38937 | 39963 ft | 452 kts | 227° |
| 2026-04-28 11:32 | 21.44764 | 120.34261 | 39965 ft | 452 kts | 226° |
| 2026-04-28 11:32 | 21.40273 | 120.29572 | 39963 ft | 452 kts | 226° |
| 2026-04-28 11:33 | 21.35775 | 120.24892 | 39963 ft | 452 kts | 226° |
| 2026-04-28 11:33 | 21.31267 | 120.20216 | 39963 ft | 452 kts | 226° |
| 2026-04-28 11:34 | 21.26754 | 120.15546 | 39963 ft | 453 kts | 226° |
| 2026-04-28 11:34 | 21.22238 | 120.10876 | 39963 ft | 453 kts | 226° |
| 2026-04-28 11:35 | 21.17716 | 120.06207 | 39963 ft | 453 kts | 227° |
| 2026-04-28 11:35 | 21.13192 | 120.01538 | 39963 ft | 453 kts | 227° |
| 2026-04-28 11:36 | 21.08663 | 119.96871 | 39962 ft | 454 kts | 227° |
| 2026-04-28 11:36 | 21.04127 | 119.92204 | 39960 ft | 454 kts | 227° |
| 2026-04-28 11:37 | 20.99597 | 119.87538 | 39955 ft | 453 kts | 227° |
| 2026-04-28 11:37 | 20.95168 | 119.82770 | 39950 ft | 453 kts | 229° |
| 2026-04-28 11:38 | 20.90759 | 119.77981 | 39945 ft | 454 kts | 229° |
| 2026-04-28 11:38 | 20.86327 | 119.73209 | 39940 ft | 454 kts | 228° |
| 2026-04-28 11:39 | 20.81886 | 119.68448 | 39936 ft | 454 kts | 228° |
| 2026-04-28 11:39 | 20.77448 | 119.63683 | 39935 ft | 454 kts | 229° |
| 2026-04-28 11:40 | 20.73016 | 119.58920 | 39934 ft | 453 kts | 229° |
| 2026-04-28 11:40 | 20.68615 | 119.54192 | 39934 ft | 454 kts | 229° |
| 2026-04-28 11:41 | 20.64178 | 119.49429 | 39934 ft | 454 kts | 229° |
| 2026-04-28 11:41 | 20.59739 | 119.44668 | 39934 ft | 454 kts | 229° |
| 2026-04-28 11:42 | 20.55299 | 119.39909 | 39934 ft | 454 kts | 229° |
| 2026-04-28 11:42 | 20.50857 | 119.35152 | 39934 ft | 454 kts | 229° |
| 2026-04-28 11:43 | 20.46421 | 119.30385 | 39935 ft | 454 kts | 228° |
| 2026-04-28 11:43 | 20.41985 | 119.25621 | 39934 ft | 454 kts | 228° |
| 2026-04-28 11:44 | 20.37542 | 119.20867 | 39934 ft | 454 kts | 228° |
| 2026-04-28 11:44 | 20.33097 | 119.16122 | 39934 ft | 453 kts | 228° |
| 2026-04-28 11:45 | 20.28657 | 119.11388 | 39934 ft | 453 kts | 228° |
| 2026-04-28 11:45 | 20.24218 | 119.06659 | 39934 ft | 453 kts | 228° |
| 2026-04-28 11:46 | 20.19778 | 119.01932 | 39934 ft | 453 kts | 228° |
| 2026-04-28 11:46 | 20.15335 | 118.97208 | 39934 ft | 453 kts | 228° |
| 2026-04-28 11:47 | 20.10887 | 118.92483 | 39934 ft | 453 kts | 228° |
| 2026-04-28 11:47 | 20.06436 | 118.87758 | 39934 ft | 453 kts | 228° |
| 2026-04-28 11:48 | 20.01985 | 118.83037 | 39934 ft | 453 kts | 228° |
| 2026-04-28 11:48 | 19.97531 | 118.78319 | 39934 ft | 453 kts | 229° |
| 2026-04-28 11:49 | 19.93079 | 118.73605 | 39934 ft | 453 kts | 229° |
| 2026-04-28 11:49 | 19.88628 | 118.68898 | 39934 ft | 453 kts | 228° |
| 2026-04-28 11:50 | 19.84157 | 118.64205 | 39934 ft | 453 kts | 228° |
| 2026-04-28 11:50 | 19.79691 | 118.59507 | 39934 ft | 453 kts | 228° |
| 2026-04-28 11:51 | 19.75231 | 118.54806 | 39934 ft | 453 kts | 229° |
| 2026-04-28 11:51 | 19.70772 | 118.50106 | 39934 ft | 453 kts | 229° |
| 2026-04-28 11:52 | 19.66314 | 118.45409 | 39934 ft | 453 kts | 228° |
| 2026-04-28 11:52 | 19.61857 | 118.40717 | 39934 ft | 453 kts | 228° |
| 2026-04-28 11:53 | 19.57400 | 118.36029 | 39934 ft | 453 kts | 228° |
| 2026-04-28 11:53 | 19.52982 | 118.31369 | 39935 ft | 453 kts | 228° |
| 2026-04-28 11:54 | 19.48530 | 118.26673 | 39934 ft | 453 kts | 228° |
| 2026-04-28 11:54 | 19.44069 | 118.21988 | 39934 ft | 453 kts | 228° |
| 2026-04-28 11:55 | 19.39603 | 118.17309 | 39934 ft | 453 kts | 228° |
| 2026-04-28 11:55 | 19.35133 | 118.12630 | 39934 ft | 454 kts | 228° |
| 2026-04-28 11:56 | 19.30660 | 118.07945 | 39934 ft | 454 kts | 228° |
| 2026-04-28 11:56 | 19.26187 | 118.03262 | 39934 ft | 454 kts | 228° |
| 2026-04-28 11:57 | 19.21707 | 117.98580 | 39935 ft | 454 kts | 228° |
| 2026-04-28 11:57 | 19.17229 | 117.93906 | 39934 ft | 454 kts | 228° |
| 2026-04-28 11:58 | 19.12751 | 117.89236 | 39934 ft | 454 kts | 228° |
| 2026-04-28 11:58 | 19.08270 | 117.84569 | 39934 ft | 454 kts | 228° |
| 2026-04-28 11:59 | 19.03786 | 117.79902 | 39934 ft | 454 kts | 228° |
| 2026-04-28 11:59 | 18.99302 | 117.75229 | 39934 ft | 454 kts | 228° |
| 2026-04-28 12:00 | 18.94819 | 117.70558 | 39934 ft | 454 kts | 228° |
| 2026-04-28 12:00 | 18.90334 | 117.65895 | 39935 ft | 454 kts | 228° |
| 2026-04-28 12:01 | 18.85834 | 117.61249 | 39934 ft | 454 kts | 228° |
| 2026-04-28 12:01 | 18.81330 | 117.56602 | 39934 ft | 454 kts | 228° |
| 2026-04-28 12:02 | 18.76829 | 117.51947 | 39934 ft | 454 kts | 228° |
| 2026-04-28 12:02 | 18.72330 | 117.47291 | 39934 ft | 455 kts | 228° |
| 2026-04-28 12:03 | 18.67831 | 117.42636 | 39934 ft | 455 kts | 228° |
| 2026-04-28 12:03 | 18.63333 | 117.37985 | 39934 ft | 455 kts | 228° |
| 2026-04-28 12:04 | 18.58835 | 117.33334 | 39935 ft | 455 kts | 228° |
| 2026-04-28 12:04 | 18.54380 | 117.28706 | 39935 ft | 455 kts | 228° |
| 2026-04-28 12:05 | 18.49883 | 117.24052 | 39934 ft | 455 kts | 228° |
| 2026-04-28 12:05 | 18.45380 | 117.19405 | 39934 ft | 455 kts | 227° |
| 2026-04-28 12:06 | 18.40874 | 117.14761 | 39934 ft | 455 kts | 227° |
| 2026-04-28 12:06 | 18.36366 | 117.10123 | 39934 ft | 454 kts | 228° |
| 2026-04-28 12:07 | 18.31863 | 117.05492 | 39933 ft | 454 kts | 228° |
| 2026-04-28 12:07 | 18.27360 | 117.00864 | 39929 ft | 454 kts | 228° |
| 2026-04-28 12:08 | 18.22857 | 116.96240 | 39924 ft | 454 kts | 228° |
| 2026-04-28 12:08 | 18.18351 | 116.91617 | 39919 ft | 454 kts | 228° |
| 2026-04-28 12:09 | 18.13844 | 116.86996 | 39914 ft | 454 kts | 228° |
| 2026-04-28 12:09 | 18.09335 | 116.82378 | 39910 ft | 454 kts | 228° |
| 2026-04-28 12:10 | 18.04826 | 116.77762 | 39908 ft | 454 kts | 228° |
| 2026-04-28 12:10 | 18.00314 | 116.73148 | 39911 ft | 454 kts | 228° |
| 2026-04-28 12:11 | 17.95797 | 116.68528 | 39919 ft | 455 kts | 227° |
| 2026-04-28 12:11 | 17.91269 | 116.63907 | 39927 ft | 455 kts | 227° |
| 2026-04-28 12:12 | 17.86730 | 116.59296 | 39931 ft | 456 kts | 227° |
| 2026-04-28 12:12 | 17.82189 | 116.54690 | 39932 ft | 456 kts | 227° |
| 2026-04-28 12:13 | 17.77655 | 116.50073 | 39932 ft | 456 kts | 227° |
| 2026-04-28 12:13 | 17.73117 | 116.45456 | 39932 ft | 456 kts | 227° |
| 2026-04-28 12:14 | 17.68585 | 116.40848 | 39933 ft | 455 kts | 227° |
| 2026-04-28 12:14 | 17.64073 | 116.36255 | 39933 ft | 452 kts | 227° |
| 2026-04-28 12:15 | 17.59577 | 116.31675 | 39933 ft | 452 kts | 227° |
| 2026-04-28 12:15 | 17.55087 | 116.27092 | 39933 ft | 452 kts | 227° |
| 2026-04-28 12:16 | 17.50589 | 116.22518 | 39933 ft | 452 kts | 227° |
| 2026-04-28 12:16 | 17.46086 | 116.17947 | 39932 ft | 453 kts | 227° |
| 2026-04-28 12:17 | 17.41575 | 116.13376 | 39932 ft | 453 kts | 227° |
| 2026-04-28 12:17 | 17.37062 | 116.08807 | 39931 ft | 453 kts | 227° |
| 2026-04-28 12:18 | 17.32580 | 116.04273 | 39928 ft | 453 kts | 227° |
| 2026-04-28 12:18 | 17.28063 | 115.99709 | 39923 ft | 453 kts | 227° |
| 2026-04-28 12:19 | 17.23555 | 115.95154 | 39919 ft | 451 kts | 226° |
| 2026-04-28 12:19 | 17.19054 | 115.90611 | 39913 ft | 451 kts | 226° |
| 2026-04-28 12:20 | 17.14553 | 115.86070 | 39910 ft | 451 kts | 226° |
| 2026-04-28 12:20 | 17.10048 | 115.81528 | 39908 ft | 452 kts | 226° |
| 2026-04-28 12:21 | 17.05536 | 115.76984 | 39908 ft | 452 kts | 226° |
| 2026-04-28 12:21 | 17.01025 | 115.72444 | 39908 ft | 452 kts | 226° |
| 2026-04-28 12:22 | 16.96514 | 115.67907 | 39908 ft | 452 kts | 226° |
| 2026-04-28 12:22 | 16.92004 | 115.63373 | 39908 ft | 451 kts | 226° |
| 2026-04-28 12:23 | 16.87489 | 115.58850 | 39908 ft | 451 kts | 226° |
| 2026-04-28 12:23 | 16.82962 | 115.54337 | 39908 ft | 451 kts | 226° |
| 2026-04-28 12:24 | 16.78445 | 115.49821 | 39908 ft | 451 kts | 226° |
| 2026-04-28 12:24 | 16.73932 | 115.45304 | 39908 ft | 451 kts | 226° |
| 2026-04-28 12:25 | 16.69421 | 115.40788 | 39908 ft | 451 kts | 226° |
| 2026-04-28 12:25 | 16.64909 | 115.36272 | 39908 ft | 451 kts | 226° |
| 2026-04-28 12:26 | 16.60406 | 115.31752 | 39908 ft | 451 kts | 226° |
| 2026-04-28 12:26 | 16.55907 | 115.27230 | 39908 ft | 451 kts | 226° |
| 2026-04-28 12:27 | 16.51433 | 115.22750 | 39908 ft | 451 kts | 226° |
| 2026-04-28 12:27 | 16.46921 | 115.18242 | 39908 ft | 451 kts | 226° |
| 2026-04-28 12:28 | 16.42411 | 115.13741 | 39906 ft | 450 kts | 226° |
| 2026-04-28 12:28 | 16.37898 | 115.09242 | 39902 ft | 450 kts | 226° |
| 2026-04-28 12:29 | 16.31107 | 115.02478 | 39895 ft | 450 kts | 226° |
| 2026-04-28 12:30 | 16.26627 | 114.98019 | 39891 ft | 450 kts | 226° |
| 2026-04-28 12:30 | 16.22113 | 114.93530 | 39891 ft | 450 kts | 226° |
| 2026-04-28 12:31 | 16.17598 | 114.89043 | 39895 ft | 450 kts | 226° |
| 2026-04-28 12:31 | 16.13084 | 114.84560 | 39900 ft | 450 kts | 226° |
| 2026-04-28 12:32 | 16.08572 | 114.80083 | 39904 ft | 450 kts | 226° |
| 2026-04-28 12:32 | 16.04061 | 114.75608 | 39906 ft | 450 kts | 226° |
| 2026-04-28 12:33 | 15.99548 | 114.71133 | 39906 ft | 449 kts | 225° |
| 2026-04-28 12:33 | 15.95037 | 114.66663 | 39906 ft | 450 kts | 225° |
| 2026-04-28 12:34 | 15.90522 | 114.62196 | 39906 ft | 450 kts | 225° |
| 2026-04-28 12:34 | 15.86030 | 114.57777 | 39906 ft | 449 kts | 225° |
| 2026-04-28 12:35 | 15.81510 | 114.53332 | 39906 ft | 449 kts | 225° |
| 2026-04-28 12:35 | 15.76997 | 114.48882 | 39906 ft | 449 kts | 225° |
| 2026-04-28 12:36 | 15.72486 | 114.44431 | 39906 ft | 449 kts | 225° |
| 2026-04-28 12:36 | 15.67976 | 114.39982 | 39906 ft | 449 kts | 226° |
| 2026-04-28 12:37 | 15.63465 | 114.35533 | 39906 ft | 449 kts | 226° |
| 2026-04-28 12:37 | 15.58962 | 114.31076 | 39906 ft | 449 kts | 225° |
| 2026-04-28 12:38 | 15.54459 | 114.26620 | 39906 ft | 449 kts | 225° |
| 2026-04-28 12:38 | 15.49948 | 114.22173 | 39906 ft | 449 kts | 225° |
| 2026-04-28 12:39 | 15.45466 | 114.17765 | 39906 ft | 449 kts | 225° |
| 2026-04-28 12:39 | 15.40946 | 114.13324 | 39906 ft | 449 kts | 225° |
| 2026-04-28 12:40 | 15.36417 | 114.08880 | 39906 ft | 450 kts | 225° |
| 2026-04-28 12:40 | 15.31885 | 114.04435 | 39906 ft | 450 kts | 225° |
| 2026-04-28 12:41 | 15.27254 | 114.00099 | 39906 ft | 451 kts | 221° |
| 2026-04-28 12:41 | 15.22257 | 113.96186 | 39907 ft | 452 kts | 218° |
| 2026-04-28 12:42 | 15.17161 | 113.92400 | 39906 ft | 452 kts | 218° |
| 2026-04-28 12:42 | 15.12059 | 113.88619 | 39906 ft | 453 kts | 218° |
| 2026-04-28 12:43 | 15.06995 | 113.84866 | 39906 ft | 453 kts | 218° |
| 2026-04-28 12:43 | 15.01885 | 113.81083 | 39906 ft | 453 kts | 218° |
| 2026-04-28 12:44 | 14.96771 | 113.77298 | 39906 ft | 453 kts | 218° |
| 2026-04-28 12:44 | 14.91653 | 113.73511 | 39906 ft | 454 kts | 218° |
| 2026-04-28 12:45 | 14.86523 | 113.69732 | 39906 ft | 454 kts | 218° |
| 2026-04-28 12:45 | 14.81385 | 113.65958 | 39906 ft | 455 kts | 218° |
| 2026-04-28 12:46 | 14.76252 | 113.62176 | 39906 ft | 455 kts | 218° |
| 2026-04-28 12:46 | 14.71120 | 113.58390 | 39906 ft | 455 kts | 218° |
| 2026-04-28 12:47 | 14.65991 | 113.54607 | 39906 ft | 454 kts | 218° |
| 2026-04-28 12:47 | 14.60863 | 113.50828 | 39906 ft | 454 kts | 218° |
| 2026-04-28 12:48 | 14.55772 | 113.47077 | 39906 ft | 454 kts | 218° |
| 2026-04-28 12:48 | 14.50639 | 113.43298 | 39906 ft | 455 kts | 218° |
| 2026-04-28 12:49 | 14.45506 | 113.39510 | 39906 ft | 455 kts | 218° |
| 2026-04-28 12:49 | 14.40373 | 113.35715 | 39906 ft | 455 kts | 218° |
| 2026-04-28 12:50 | 14.35251 | 113.31915 | 39907 ft | 455 kts | 218° |
| 2026-04-28 12:50 | 14.30127 | 113.28111 | 39906 ft | 455 kts | 218° |
| 2026-04-28 12:51 | 14.24995 | 113.24321 | 39906 ft | 455 kts | 218° |
| 2026-04-28 12:51 | 14.19861 | 113.20539 | 39906 ft | 455 kts | 218° |
| 2026-04-28 12:52 | 14.14729 | 113.16765 | 39906 ft | 455 kts | 218° |
| 2026-04-28 12:52 | 14.09600 | 113.12994 | 39906 ft | 454 kts | 218° |
| 2026-04-28 12:53 | 14.04589 | 113.09154 | 39905 ft | 453 kts | 222° |
| 2026-04-28 12:53 | 14.00043 | 113.04726 | 39905 ft | 451 kts | 229° |
| 2026-04-28 12:54 | 13.96107 | 112.99720 | 39904 ft | 452 kts | 236° |
| 2026-04-28 12:54 | 13.92846 | 112.94220 | 39904 ft | 451 kts | 243° |
| 2026-04-28 12:55 | 13.89937 | 112.88515 | 39906 ft | 451 kts | 243° |
| 2026-04-28 12:55 | 13.87020 | 112.82813 | 39908 ft | 451 kts | 243° |
| 2026-04-28 12:56 | 13.84107 | 112.77124 | 39908 ft | 450 kts | 243° |
| 2026-04-28 12:56 | 13.81202 | 112.71435 | 39908 ft | 450 kts | 243° |
| 2026-04-28 12:57 | 13.78299 | 112.65745 | 39908 ft | 450 kts | 243° |
| 2026-04-28 12:57 | 13.75400 | 112.60062 | 39908 ft | 450 kts | 243° |
| 2026-04-28 12:58 | 13.72503 | 112.54386 | 39908 ft | 449 kts | 243° |
| 2026-04-28 12:58 | 13.69605 | 112.48712 | 39908 ft | 449 kts | 243° |
| 2026-04-28 12:59 | 13.66707 | 112.43040 | 39908 ft | 449 kts | 243° |
| 2026-04-28 12:59 | 13.63810 | 112.37376 | 39908 ft | 448 kts | 243° |
| 2026-04-28 13:00 | 13.60919 | 112.31715 | 39909 ft | 448 kts | 243° |
| 2026-04-28 13:00 | 13.58033 | 112.26054 | 39908 ft | 448 kts | 243° |
| 2026-04-28 13:01 | 13.55141 | 112.20396 | 39908 ft | 448 kts | 243° |
| 2026-04-28 13:01 | 13.52244 | 112.14742 | 39908 ft | 448 kts | 243° |
| 2026-04-28 13:02 | 13.49345 | 112.09090 | 39908 ft | 448 kts | 243° |
| 2026-04-28 13:02 | 13.46443 | 112.03439 | 39908 ft | 449 kts | 243° |
| 2026-04-28 13:03 | 13.43557 | 111.97821 | 39908 ft | 449 kts | 243° |
| 2026-04-28 13:03 | 13.40647 | 111.92162 | 39908 ft | 449 kts | 243° |
| 2026-04-28 13:04 | 13.37735 | 111.86502 | 39908 ft | 449 kts | 243° |
| 2026-04-28 13:04 | 13.34818 | 111.80837 | 39908 ft | 450 kts | 243° |
| 2026-04-28 13:05 | 13.31897 | 111.75167 | 39907 ft | 451 kts | 243° |
| 2026-04-28 13:05 | 13.28969 | 111.69489 | 39908 ft | 451 kts | 243° |
| 2026-04-28 13:06 | 13.26037 | 111.63806 | 39908 ft | 452 kts | 243° |
| 2026-04-28 13:06 | 13.23100 | 111.58116 | 39909 ft | 453 kts | 243° |
| 2026-04-28 13:07 | 13.20156 | 111.52419 | 39913 ft | 453 kts | 243° |
| 2026-04-28 13:07 | 13.17207 | 111.46716 | 39917 ft | 454 kts | 243° |
| 2026-04-28 13:08 | 13.14253 | 111.41005 | 39922 ft | 455 kts | 243° |
| 2026-04-28 13:08 | 13.11294 | 111.35289 | 39927 ft | 455 kts | 243° |
| 2026-04-28 13:09 | 13.08338 | 111.29562 | 39931 ft | 456 kts | 243° |
| 2026-04-28 13:09 | 13.05378 | 111.23830 | 39932 ft | 456 kts | 243° |
| 2026-04-28 13:10 | 13.02408 | 111.18098 | 39932 ft | 457 kts | 242° |
| 2026-04-28 13:10 | 12.99430 | 111.12361 | 39932 ft | 458 kts | 242° |
| 2026-04-28 13:11 | 12.96448 | 111.06619 | 39932 ft | 458 kts | 242° |
| 2026-04-28 13:11 | 12.93462 | 111.00876 | 39932 ft | 458 kts | 242° |
| 2026-04-28 13:12 | 12.90470 | 110.95125 | 39933 ft | 459 kts | 242° |
| 2026-04-28 13:12 | 12.87459 | 110.89383 | 39933 ft | 459 kts | 242° |
| 2026-04-28 13:13 | 12.84444 | 110.83639 | 39932 ft | 460 kts | 242° |
| 2026-04-28 13:13 | 12.81435 | 110.77882 | 39932 ft | 460 kts | 243° |
| 2026-04-28 13:14 | 12.78431 | 110.72124 | 39932 ft | 459 kts | 243° |
| 2026-04-28 13:14 | 12.75424 | 110.66366 | 39932 ft | 460 kts | 243° |
| 2026-04-28 13:15 | 12.72415 | 110.60598 | 39932 ft | 460 kts | 243° |
| 2026-04-28 13:15 | 12.69403 | 110.54830 | 39932 ft | 461 kts | 243° |
| 2026-04-28 13:16 | 12.66389 | 110.49064 | 39932 ft | 461 kts | 243° |
| 2026-04-28 13:16 | 12.63368 | 110.43290 | 39932 ft | 462 kts | 243° |
| 2026-04-28 13:17 | 12.60343 | 110.37513 | 39932 ft | 462 kts | 243° |
| 2026-04-28 13:17 | 12.57326 | 110.31744 | 39933 ft | 462 kts | 243° |
| 2026-04-28 13:18 | 12.54308 | 110.25961 | 39933 ft | 462 kts | 243° |
| 2026-04-28 13:18 | 12.51281 | 110.20181 | 39933 ft | 462 kts | 243° |
| 2026-04-28 13:19 | 12.48249 | 110.14400 | 39932 ft | 463 kts | 243° |
| 2026-04-28 13:19 | 12.45209 | 110.08613 | 39932 ft | 463 kts | 243° |
| 2026-04-28 13:20 | 12.42165 | 110.02823 | 39933 ft | 463 kts | 243° |
| 2026-04-28 13:20 | 12.39119 | 109.97034 | 39933 ft | 463 kts | 243° |
| 2026-04-28 13:21 | 12.36072 | 109.91247 | 39933 ft | 464 kts | 243° |
| 2026-04-28 13:21 | 12.33024 | 109.85460 | 39933 ft | 464 kts | 243° |
| 2026-04-28 13:22 | 12.29996 | 109.79716 | 39932 ft | 464 kts | 243° |
| 2026-04-28 13:22 | 12.26939 | 109.73922 | 39933 ft | 464 kts | 243° |
| 2026-04-28 13:23 | 12.23880 | 109.68130 | 39932 ft | 464 kts | 243° |
| 2026-04-28 13:23 | 12.20824 | 109.62348 | 39933 ft | 463 kts | 243° |
| 2026-04-28 13:24 | 12.17766 | 109.56570 | 39933 ft | 463 kts | 243° |
| 2026-04-28 13:24 | 12.14710 | 109.50796 | 39933 ft | 463 kts | 243° |
| 2026-04-28 13:25 | 12.11667 | 109.45019 | 39932 ft | 464 kts | 243° |
| 2026-04-28 13:25 | 12.08616 | 109.39236 | 39933 ft | 464 kts | 242° |
| 2026-04-28 13:26 | 12.05553 | 109.33453 | 39934 ft | 464 kts | 242° |
| 2026-04-28 13:26 | 12.02510 | 109.27664 | 39932 ft | 464 kts | 243° |
| 2026-04-28 13:27 | 11.99850 | 109.21696 | 39931 ft | 463 kts | 249° |
| 2026-04-28 13:27 | 11.97783 | 109.15483 | 39931 ft | 464 kts | 254° |
| 2026-04-28 13:28 | 11.96077 | 109.09149 | 39932 ft | 464 kts | 255° |
| 2026-04-28 13:28 | 11.94379 | 109.02809 | 39932 ft | 465 kts | 255° |
| 2026-04-28 13:29 | 11.92680 | 108.96462 | 39933 ft | 465 kts | 255° |
| 2026-04-28 13:29 | 11.90874 | 108.90147 | 39933 ft | 465 kts | 253° |
| 2026-04-28 13:30 | 11.88999 | 108.83853 | 39933 ft | 465 kts | 253° |
| 2026-04-28 13:30 | 11.87198 | 108.77540 | 39933 ft | 465 kts | 254° |
| 2026-04-28 13:31 | 11.84513 | 108.68035 | 39932 ft | 465 kts | 254° |
| 2026-04-28 13:31 | 11.82727 | 108.61702 | 39933 ft | 466 kts | 254° |
| 2026-04-28 13:32 | 11.80962 | 108.55362 | 39933 ft | 466 kts | 254° |
| 2026-04-28 13:32 | 11.79195 | 108.49024 | 39932 ft | 466 kts | 254° |
| 2026-04-28 13:33 | 11.77424 | 108.42687 | 39932 ft | 466 kts | 254° |
| 2026-04-28 13:33 | 11.75356 | 108.36459 | 39930 ft | 465 kts | 246° |
| 2026-04-28 13:34 | 11.72117 | 108.30707 | 39934 ft | 465 kts | 236° |
| 2026-04-28 13:34 | 11.68389 | 108.25322 | 39933 ft | 465 kts | 235° |
| 2026-04-28 13:35 | 11.64639 | 108.19968 | 39933 ft | 465 kts | 235° |
| 2026-04-28 13:35 | 11.60901 | 108.14603 | 39933 ft | 465 kts | 235° |
| 2026-04-28 13:36 | 11.57170 | 108.09233 | 39932 ft | 466 kts | 235° |
| 2026-04-28 13:36 | 11.53430 | 108.03854 | 39933 ft | 466 kts | 235° |
| 2026-04-28 13:37 | 11.49687 | 107.98479 | 39932 ft | 466 kts | 235° |
| 2026-04-28 13:37 | 11.45944 | 107.93110 | 39929 ft | 466 kts | 235° |
| 2026-04-28 13:38 | 11.42199 | 107.87743 | 39921 ft | 466 kts | 235° |
| 2026-04-28 13:38 | 11.38450 | 107.82373 | 39910 ft | 466 kts | 235° |
| 2026-04-28 13:39 | 11.34701 | 107.77006 | 39898 ft | 466 kts | 235° |
| 2026-04-28 13:39 | 11.30947 | 107.71638 | 39888 ft | 466 kts | 235° |
| 2026-04-28 13:40 | 11.27193 | 107.66273 | 39883 ft | 466 kts | 235° |
| 2026-04-28 13:40 | 11.23439 | 107.60909 | 39880 ft | 466 kts | 235° |
| 2026-04-28 13:41 | 11.19704 | 107.55555 | 39880 ft | 466 kts | 235° |
| 2026-04-28 13:41 | 11.15968 | 107.50194 | 39880 ft | 466 kts | 235° |
| 2026-04-28 13:42 | 11.12234 | 107.44833 | 39880 ft | 466 kts | 235° |
| 2026-04-28 13:42 | 11.08500 | 107.39471 | 39880 ft | 466 kts | 235° |
| 2026-04-28 13:43 | 11.04770 | 107.34113 | 39881 ft | 466 kts | 235° |
| 2026-04-28 13:43 | 11.01053 | 107.28740 | 39880 ft | 466 kts | 235° |
| 2026-04-28 13:44 | 10.97341 | 107.23364 | 39879 ft | 466 kts | 235° |
| 2026-04-28 13:44 | 10.93627 | 107.17987 | 39879 ft | 466 kts | 235° |
| 2026-04-28 13:45 | 10.89912 | 107.12612 | 39879 ft | 466 kts | 235° |
| 2026-04-28 13:45 | 10.86178 | 107.07252 | 39879 ft | 466 kts | 235° |
| 2026-04-28 13:46 | 10.82429 | 107.01891 | 39879 ft | 467 kts | 235° |
| 2026-04-28 13:46 | 10.78677 | 106.96526 | 39879 ft | 467 kts | 235° |
| 2026-04-28 13:47 | 10.74922 | 106.91164 | 39879 ft | 467 kts | 235° |
| 2026-04-28 13:47 | 10.71193 | 106.85841 | 39874 ft | 453 kts | 235° |
| 2026-04-28 13:48 | 10.69414 | 106.83306 | 39872 ft | 438 kts | 235° |
| 2026-04-28 13:48 | 10.67667 | 106.80820 | 39872 ft | 423 kts | 235° |
| 2026-04-28 13:48 | 10.66001 | 106.78451 | 39871 ft | 409 kts | 235° |
| 2026-04-28 13:48 | 10.64368 | 106.76131 | 39871 ft | 395 kts | 235° |
| 2026-04-28 13:49 | 10.62814 | 106.73927 | 39871 ft | 381 kts | 235° |
| 2026-04-28 13:49 | 10.61291 | 106.71770 | 39870 ft | 367 kts | 235° |
| 2026-04-28 13:49 | 10.58361 | 106.67629 | 39877 ft | 361 kts | 235° |
| 2026-04-28 13:50 | 10.55438 | 106.63502 | 39879 ft | 361 kts | 235° |
| 2026-04-28 13:50 | 10.52513 | 106.59377 | 39879 ft | 361 kts | 235° |
| 2026-04-28 13:51 | 10.49586 | 106.55251 | 39879 ft | 361 kts | 235° |
| 2026-04-28 13:51 | 10.46658 | 106.51127 | 39879 ft | 361 kts | 235° |
| 2026-04-28 13:52 | 10.43728 | 106.47004 | 39879 ft | 361 kts | 235° |
| 2026-04-28 13:52 | 10.40796 | 106.42881 | 39879 ft | 361 kts | 235° |
| 2026-04-28 13:53 | 10.37884 | 106.38790 | 39879 ft | 361 kts | 235° |
| 2026-04-28 13:53 | 10.34948 | 106.34667 | 39880 ft | 361 kts | 235° |
| 2026-04-28 13:54 | 10.32023 | 106.30538 | 39880 ft | 361 kts | 235° |
| 2026-04-28 13:54 | 10.29103 | 106.26405 | 39884 ft | 361 kts | 235° |
| 2026-04-28 13:55 | 10.26181 | 106.22263 | 39896 ft | 362 kts | 235° |
| 2026-04-28 13:55 | 10.23256 | 106.18118 | 39903 ft | 362 kts | 235° |
| 2026-04-28 13:56 | 10.20333 | 106.13973 | 39905 ft | 362 kts | 236° |
| 2026-04-28 13:56 | 10.17408 | 106.09829 | 39906 ft | 362 kts | 236° |
| 2026-04-28 13:57 | 10.14481 | 106.05685 | 39906 ft | 362 kts | 236° |
| 2026-04-28 13:57 | 10.11556 | 106.01542 | 39906 ft | 362 kts | 236° |
| 2026-04-28 13:58 | 10.08631 | 105.97400 | 39906 ft | 362 kts | 236° |
| 2026-04-28 13:58 | 10.05706 | 105.93257 | 39906 ft | 362 kts | 236° |
| 2026-04-28 13:59 | 10.02782 | 105.89114 | 39906 ft | 362 kts | 236° |
| 2026-04-28 13:59 | 9.99859 | 105.84973 | 39906 ft | 362 kts | 236° |
| 2026-04-28 14:00 | 9.96936 | 105.80832 | 39906 ft | 362 kts | 236° |
| 2026-04-28 14:00 | 9.94014 | 105.76691 | 39906 ft | 362 kts | 236° |
| 2026-04-28 14:01 | 9.91093 | 105.72551 | 39906 ft | 362 kts | 236° |
| 2026-04-28 14:01 | 9.88164 | 105.68417 | 39906 ft | 362 kts | 235° |
| 2026-04-28 14:02 | 9.85219 | 105.64294 | 39906 ft | 362 kts | 235° |
| 2026-04-28 14:02 | 9.82273 | 105.60175 | 39906 ft | 362 kts | 235° |
| 2026-04-28 14:03 | 9.79327 | 105.56046 | 39906 ft | 363 kts | 235° |
| 2026-04-28 14:03 | 9.76403 | 105.51943 | 39906 ft | 363 kts | 235° |
| 2026-04-28 14:04 | 9.73457 | 105.47810 | 39906 ft | 363 kts | 235° |
| 2026-04-28 14:04 | 9.70492 | 105.43649 | 39906 ft | 363 kts | 235° |
| 2026-04-28 14:05 | 9.67569 | 105.39547 | 39906 ft | 363 kts | 235° |
| 2026-04-28 14:05 | 9.64625 | 105.35415 | 39906 ft | 363 kts | 235° |
| 2026-04-28 14:06 | 9.61691 | 105.31275 | 39906 ft | 363 kts | 235° |
| 2026-04-28 14:06 | 9.58765 | 105.27132 | 39906 ft | 362 kts | 236° |
| 2026-04-28 14:07 | 9.55841 | 105.22989 | 39905 ft | 363 kts | 235° |
| 2026-04-28 14:07 | 9.52917 | 105.18836 | 39906 ft | 363 kts | 236° |
| 2026-04-28 14:08 | 9.49991 | 105.14680 | 39906 ft | 363 kts | 236° |
| 2026-04-28 14:08 | 9.47064 | 105.10523 | 39906 ft | 363 kts | 236° |
| 2026-04-28 14:09 | 9.44137 | 105.06368 | 39906 ft | 363 kts | 236° |
| 2026-04-28 14:09 | 9.41210 | 105.02213 | 39906 ft | 363 kts | 236° |
| 2026-04-28 14:10 | 9.38284 | 104.98059 | 39906 ft | 363 kts | 236° |
| 2026-04-28 14:10 | 9.35359 | 104.93903 | 39906 ft | 364 kts | 236° |
| 2026-04-28 14:11 | 9.32435 | 104.89738 | 39906 ft | 364 kts | 236° |
| 2026-04-28 14:11 | 9.29512 | 104.85571 | 39906 ft | 364 kts | 236° |
| 2026-04-28 14:12 | 9.26590 | 104.81405 | 39906 ft | 364 kts | 236° |
| 2026-04-28 14:12 | 9.23669 | 104.77239 | 39906 ft | 364 kts | 236° |
| 2026-04-28 14:13 | 9.20748 | 104.73074 | 39906 ft | 364 kts | 236° |
| 2026-04-28 14:13 | 9.17851 | 104.68939 | 39906 ft | 364 kts | 236° |
| 2026-04-28 14:14 | 9.14931 | 104.64775 | 39906 ft | 364 kts | 236° |
| 2026-04-28 14:14 | 9.12015 | 104.60611 | 39906 ft | 364 kts | 236° |
| 2026-04-28 14:15 | 9.09101 | 104.56444 | 39906 ft | 364 kts | 236° |
| 2026-04-28 14:15 | 9.06181 | 104.52258 | 39906 ft | 364 kts | 236° |